createdAt,value
2023-05-18T00:00:02.760Z,11.46
2023-05-18T00:03:07.939Z,11.45
2023-05-18T00:06:11.338Z,11.42
2023-05-18T00:09:14.165Z,11.35
2023-05-18T00:12:17.340Z,11.29
2023-05-18T00:15:19.961Z,11.34
2023-05-18T00:18:24.314Z,10.76
2023-05-18T00:21:30.710Z,11.33
2023-05-18T00:24:35.668Z,11.33
2023-05-18T00:27:39.580Z,11.23
2023-05-18T00:30:42.516Z,11.29
2023-05-18T00:33:47.746Z,11.25
2023-05-18T00:36:51.003Z,11.24
2023-05-18T00:39:53.722Z,11.21
2023-05-18T00:42:57.023Z,11.12
2023-05-18T00:45:59.707Z,11.21
2023-05-18T00:49:03.094Z,11.19
2023-05-18T00:52:05.985Z,11.16
2023-05-18T00:55:09.868Z,11.11
2023-05-18T00:58:12.602Z,11.11
2023-05-18T01:01:17.985Z,10.97
2023-05-18T01:04:21.876Z,11.03
2023-05-18T01:07:26.794Z,10.93
2023-05-18T01:10:33.608Z,10.56
2023-05-18T01:13:48.159Z,11.00
2023-05-18T01:17:10.445Z,10.88
2023-05-18T01:20:25.811Z,10.98
2023-05-18T01:23:29.763Z,10.95
2023-05-18T01:26:37.830Z,10.95
2023-05-18T01:29:41.654Z,10.95
2023-05-18T01:32:47.202Z,10.93
2023-05-18T01:35:50.078Z,10.88
2023-05-18T01:38:54.585Z,10.83
2023-05-18T01:42:05.951Z,10.83
2023-05-18T01:45:14.361Z,10.74
2023-05-18T01:48:20.406Z,10.87
2023-05-18T01:51:27.237Z,10.73
2023-05-18T01:54:31.690Z,10.84
2023-05-18T01:57:37.219Z,10.80
2023-05-18T02:00:39.845Z,10.82
2023-05-18T02:03:44.331Z,10.74
2023-05-18T02:06:47.267Z,10.72
2023-05-18T02:09:50.315Z,10.69
2023-05-18T02:12:53.896Z,10.66
2023-05-18T02:15:56.918Z,10.66
2023-05-18T02:19:00.365Z,10.63
2023-05-18T02:22:05.962Z,10.62
2023-05-18T02:25:09.317Z,10.62
2023-05-18T02:28:12.652Z,10.66
2023-05-18T02:31:15.649Z,10.65
2023-05-18T02:34:19.671Z,10.65
2023-05-18T02:37:23.312Z,10.51
2023-05-18T02:40:26.189Z,10.50
2023-05-18T02:43:29.348Z,10.46
2023-05-18T02:46:32.796Z,10.50
2023-05-18T02:49:35.905Z,10.55
2023-05-18T02:52:39.359Z,10.54
2023-05-18T02:55:43.522Z,10.53
2023-05-18T02:58:47.293Z,10.48
2023-05-18T03:01:51.670Z,10.39
2023-05-18T03:04:57.632Z,10.38
2023-05-18T03:08:02.413Z,9.92
2023-05-18T03:11:05.273Z,10.29
2023-05-18T03:14:08.323Z,10.41
2023-05-18T03:17:11.292Z,10.37
2023-05-18T03:20:15.702Z,10.45
2023-05-18T03:23:20.194Z,10.42
2023-05-18T03:26:26.315Z,10.38
2023-05-18T03:29:31.294Z,10.41
2023-05-18T03:32:37.171Z,10.42
2023-05-18T03:35:40.838Z,10.43
2023-05-18T03:38:47.187Z,10.44
2023-05-18T03:41:50.054Z,10.46
2023-05-18T03:44:53.025Z,10.46
2023-05-18T03:47:56.034Z,10.39
2023-05-18T03:50:59.979Z,10.40
2023-05-18T03:54:03.261Z,10.41
2023-05-18T03:57:06.408Z,10.44
2023-05-18T04:00:11.838Z,10.45
2023-05-18T04:03:21.520Z,10.50
2023-05-18T04:06:27.146Z,10.50
2023-05-18T04:09:29.787Z,10.50
2023-05-18T04:12:32.696Z,10.50
2023-05-18T04:15:35.294Z,10.49
2023-05-18T04:18:38.364Z,10.48
2023-05-18T04:21:43.598Z,10.43
2023-05-18T04:24:47.604Z,10.46
2023-05-18T04:27:51.659Z,10.41
2023-05-18T04:30:54.808Z,10.43
2023-05-18T04:34:00.160Z,10.41
2023-05-18T04:37:05.612Z,10.45
2023-05-18T04:40:12.899Z,10.43
2023-05-18T04:43:17.600Z,10.45
2023-05-18T04:46:22.411Z,10.43
2023-05-18T04:49:28.262Z,10.48
2023-05-18T04:52:30.901Z,10.42
2023-05-18T04:55:35.324Z,10.45
2023-05-18T04:58:38.697Z,10.48
2023-05-18T05:01:41.635Z,10.88
2023-05-18T05:04:44.637Z,10.96
2023-05-18T05:07:47.614Z,10.83
2023-05-18T05:10:50.179Z,10.73
2023-05-18T05:13:53.103Z,10.71
2023-05-18T05:16:55.779Z,10.67
2023-05-18T05:19:58.602Z,10.65
2023-05-18T05:23:01.258Z,10.66
2023-05-18T05:26:04.419Z,10.68
2023-05-18T05:29:07.411Z,10.62
2023-05-18T05:32:12.575Z,10.60
2023-05-18T05:35:16.289Z,10.59
2023-05-18T05:38:21.070Z,10.59
2023-05-18T05:41:23.947Z,10.60
2023-05-18T05:44:27.110Z,10.59
2023-05-18T05:47:30.296Z,10.64
2023-05-18T05:50:33.624Z,10.66
2023-05-18T05:53:36.862Z,10.65
2023-05-18T05:56:39.711Z,10.64
2023-05-18T05:59:42.834Z,10.64
2023-05-18T06:02:45.988Z,10.57
2023-05-18T06:05:49.615Z,10.69
2023-05-18T06:08:53.372Z,10.56
2023-05-18T06:11:56.801Z,10.65
2023-05-18T06:15:00.804Z,10.68
2023-05-18T06:18:04.204Z,10.73
2023-05-18T06:21:07.059Z,10.70
2023-05-18T06:24:11.494Z,10.72
2023-05-18T06:27:14.987Z,10.73
2023-05-18T06:30:18.473Z,10.68
2023-05-18T06:33:23.779Z,10.74
2023-05-18T06:36:27.271Z,10.76
2023-05-18T06:39:30.009Z,10.79
2023-05-18T06:42:33.478Z,10.81
2023-05-18T06:45:37.527Z,10.80
2023-05-18T06:48:43.777Z,10.87
2023-05-18T06:51:46.350Z,10.83
2023-05-18T06:54:49.485Z,10.86
2023-05-18T06:57:53.082Z,10.84
2023-05-18T07:00:56.539Z,10.78
2023-05-18T07:03:59.906Z,10.92
2023-05-18T07:07:02.924Z,10.94
2023-05-18T07:10:06.586Z,10.97
2023-05-18T07:13:09.455Z,10.98
2023-05-18T07:16:12.278Z,11.01
2023-05-18T07:19:15.581Z,10.98
2023-05-18T07:22:18.405Z,11.02
2023-05-18T07:25:21.807Z,11.03
2023-05-18T07:28:24.458Z,10.96
2023-05-18T07:31:27.947Z,10.98
2023-05-18T07:34:31.250Z,10.98
2023-05-18T07:37:34.182Z,10.93
2023-05-18T07:40:36.904Z,11.02
2023-05-18T07:43:39.945Z,11.03
2023-05-18T07:46:43.416Z,11.06
2023-05-18T07:49:46.486Z,11.02
2023-05-18T07:52:49.157Z,11.15
2023-05-18T07:55:52.512Z,11.17
2023-05-18T07:58:55.201Z,11.14
2023-05-18T08:02:00.016Z,11.19
2023-05-18T08:05:04.045Z,11.24
2023-05-18T08:08:07.149Z,11.25
2023-05-18T08:11:10.342Z,11.31
2023-05-18T08:14:12.987Z,11.49
2023-05-18T08:17:16.062Z,11.52
2023-05-18T08:20:19.171Z,11.63
2023-05-18T08:23:22.237Z,11.69
2023-05-18T08:26:24.824Z,11.76
2023-05-18T08:29:27.857Z,11.87
2023-05-18T08:32:30.815Z,11.94
2023-05-18T08:35:33.816Z,11.83
2023-05-18T08:38:36.359Z,11.97
2023-05-18T08:41:45.118Z,12.03
2023-05-18T08:44:58.130Z,12.12
2023-05-18T08:48:02.176Z,12.15
2023-05-18T08:51:06.810Z,12.20
2023-05-18T08:54:11.065Z,12.10
2023-05-18T08:57:14.020Z,12.22
2023-05-18T09:00:17.392Z,12.21
2023-05-18T09:03:20.578Z,12.22
2023-05-18T09:06:28.663Z,12.19
2023-05-18T09:09:31.774Z,12.35
2023-05-18T09:12:35.126Z,12.35
2023-05-18T09:15:37.995Z,12.37
2023-05-18T09:18:41.036Z,12.32
2023-05-18T09:21:43.811Z,12.41
2023-05-18T09:24:47.526Z,12.43
2023-05-18T09:27:51.762Z,12.43
2023-05-18T09:30:54.989Z,12.46
2023-05-18T09:33:59.054Z,12.45
2023-05-18T09:37:02.175Z,12.49
2023-05-18T09:40:08.838Z,12.46
2023-05-18T09:43:11.668Z,12.50
2023-05-18T09:46:14.537Z,12.38
2023-05-18T09:49:21.678Z,12.41
2023-05-18T09:52:24.377Z,12.45
2023-05-18T09:55:27.178Z,12.43
2023-05-18T09:58:34.016Z,12.47
2023-05-18T10:01:37.502Z,12.41
2023-05-18T10:04:42.496Z,12.44
2023-05-18T10:07:45.589Z,12.49
2023-05-18T10:10:49.851Z,12.46
2023-05-18T10:13:56.245Z,12.51
2023-05-18T10:17:14.236Z,12.60
2023-05-18T10:20:19.595Z,12.69
2023-05-18T10:23:24.583Z,12.73
2023-05-18T10:26:28.984Z,12.83
2023-05-18T10:29:32.786Z,12.81
2023-05-18T10:32:36.586Z,12.85
2023-05-18T10:35:39.579Z,12.77
2023-05-18T10:38:45.279Z,12.73
2023-05-18T10:41:49.126Z,12.65
2023-05-18T10:44:53.490Z,12.61
2023-05-18T10:47:57.483Z,12.65
2023-05-18T10:51:00.171Z,12.63
2023-05-18T10:54:12.337Z,12.64
2023-05-18T10:57:16.974Z,12.67
2023-05-18T11:00:20.511Z,12.75
2023-05-18T11:03:23.623Z,12.77
2023-05-18T11:06:27.406Z,12.74
2023-05-18T11:09:30.468Z,12.78
2023-05-18T11:12:34.175Z,12.83
2023-05-18T11:15:55.188Z,12.78
2023-05-18T11:19:05.781Z,12.92
2023-05-18T11:22:12.715Z,12.82
2023-05-18T11:25:24.704Z,12.93
2023-05-18T11:28:27.958Z,12.87
2023-05-18T11:31:48.388Z,12.90
2023-05-18T11:34:52.832Z,12.89
2023-05-18T11:37:55.890Z,12.85
2023-05-18T11:40:59.406Z,12.77
2023-05-18T11:44:15.373Z,12.77
2023-05-18T11:47:18.712Z,12.80
2023-05-18T11:50:21.716Z,12.87
2023-05-18T11:53:25.754Z,12.90
2023-05-18T11:56:33.691Z,12.90
2023-05-18T11:59:43.993Z,12.95
2023-05-18T12:02:48.342Z,13.00
2023-05-18T12:05:51.503Z,13.05
2023-05-18T12:08:55.370Z,13.05
2023-05-18T12:11:58.371Z,13.03
2023-05-18T12:15:03.267Z,13.06
2023-05-18T12:18:06.432Z,13.09
2023-05-18T12:21:09.061Z,13.16
2023-05-18T12:24:11.936Z,13.22
2023-05-18T12:27:14.566Z,13.29
2023-05-18T12:30:19.755Z,13.31
2023-05-18T12:33:22.318Z,13.25
2023-05-18T12:36:27.352Z,13.22
2023-05-18T12:39:30.027Z,13.29
2023-05-18T12:42:32.901Z,13.28
2023-05-18T12:45:35.720Z,13.24
2023-05-18T12:48:46.835Z,13.19
2023-05-18T12:51:49.509Z,13.11
2023-05-18T12:55:01.136Z,13.09
2023-05-18T12:58:15.806Z,13.11
2023-05-18T13:01:18.744Z,13.15
2023-05-18T13:04:21.637Z,13.09
2023-05-18T13:07:26.498Z,13.09
2023-05-18T13:10:32.891Z,13.00
2023-05-18T13:13:35.740Z,13.01
2023-05-18T13:16:39.640Z,13.02
2023-05-18T13:19:42.430Z,13.13
2023-05-18T13:22:45.199Z,13.21
2023-05-18T13:25:48.730Z,13.16
2023-05-18T13:28:53.834Z,13.18
2023-05-18T13:31:56.746Z,13.21
2023-05-18T13:34:59.329Z,13.22
2023-05-18T13:38:02.214Z,13.19
2023-05-18T13:41:05.501Z,13.28
2023-05-18T13:44:08.293Z,13.08
2023-05-18T13:47:11.084Z,13.11
2023-05-18T13:50:14.176Z,13.08
2023-05-18T13:53:16.842Z,13.13
2023-05-18T13:56:19.829Z,13.09
2023-05-18T13:59:22.587Z,13.08
2023-05-18T14:02:26.444Z,13.06
2023-05-18T14:05:29.390Z,12.97
2023-05-18T14:08:31.943Z,13.06
2023-05-18T14:11:36.894Z,13.04
2023-05-18T14:14:41.170Z,13.25
2023-05-18T14:17:44.518Z,13.01
2023-05-18T14:20:48.932Z,13.03
2023-05-18T14:23:52.189Z,12.98
2023-05-18T14:26:54.801Z,13.01
2023-05-18T14:29:58.407Z,13.03
2023-05-18T14:33:01.576Z,13.03
2023-05-18T14:36:04.974Z,13.09
2023-05-18T14:39:07.582Z,13.01
2023-05-18T14:42:10.434Z,13.00
2023-05-18T14:45:13.060Z,13.07
2023-05-18T14:48:15.999Z,13.09
2023-05-18T14:51:18.771Z,13.14
2023-05-18T14:54:22.428Z,13.13
2023-05-18T14:57:26.671Z,13.11
2023-05-18T15:00:30.167Z,13.08
2023-05-18T15:03:33.244Z,13.12
2023-05-18T15:06:37.491Z,13.12
2023-05-18T15:09:40.075Z,12.97
2023-05-18T15:12:42.920Z,13.05
2023-05-18T15:15:45.512Z,13.01
2023-05-18T15:18:48.458Z,12.94
2023-05-18T15:21:51.164Z,12.90
2023-05-18T15:24:54.081Z,12.91
2023-05-18T15:27:56.778Z,12.91
2023-05-18T15:30:59.828Z,12.88
2023-05-18T15:34:02.505Z,12.84
2023-05-18T15:37:05.451Z,12.81
2023-05-18T15:40:08.786Z,12.84
2023-05-18T15:43:11.706Z,12.81
2023-05-18T15:46:14.338Z,12.81
2023-05-18T15:49:17.241Z,12.80
2023-05-18T15:52:19.768Z,12.85
2023-05-18T15:55:22.900Z,12.87
2023-05-18T15:58:25.598Z,12.87
2023-05-18T16:01:28.523Z,12.84
2023-05-18T16:04:31.509Z,13.11
2023-05-18T16:07:34.491Z,13.01
2023-05-18T16:10:37.349Z,12.97
2023-05-18T16:13:40.097Z,12.95
2023-05-18T16:16:43.034Z,12.88
2023-05-18T16:19:46.279Z,12.82
2023-05-18T16:22:49.370Z,12.82
2023-05-18T16:25:52.206Z,13.18
2023-05-18T16:28:55.060Z,13.23
2023-05-18T16:31:57.733Z,13.11
2023-05-18T16:35:02.204Z,13.01
2023-05-18T16:38:04.827Z,12.96
2023-05-18T16:41:07.785Z,12.83
2023-05-18T16:44:10.508Z,12.87
2023-05-18T16:47:13.892Z,12.81
2023-05-18T16:50:16.461Z,12.82
2023-05-18T16:53:19.499Z,12.79
2023-05-18T16:56:22.327Z,12.77
2023-05-18T16:59:25.288Z,12.77
2023-05-18T17:02:28.088Z,12.74
2023-05-18T17:05:31.137Z,12.70
2023-05-18T17:08:34.435Z,12.73
2023-05-18T17:11:37.204Z,12.70
2023-05-18T17:14:39.906Z,12.67
2023-05-18T17:17:43.987Z,12.65
2023-05-18T17:20:46.562Z,12.65
2023-05-18T17:23:49.437Z,12.65
2023-05-18T17:26:52.349Z,12.59
2023-05-18T17:29:55.375Z,12.59
2023-05-18T17:32:57.982Z,12.55
2023-05-18T17:36:01.176Z,12.51
2023-05-18T17:39:04.450Z,12.53
2023-05-18T17:42:07.388Z,12.54
2023-05-18T17:45:10.438Z,12.52
2023-05-18T17:48:13.336Z,12.49
2023-05-18T17:51:16.407Z,12.32
2023-05-18T17:54:19.296Z,12.43
2023-05-18T17:57:22.986Z,12.45
2023-05-18T18:00:26.144Z,12.43
2023-05-18T18:03:29.394Z,12.40
2023-05-18T18:06:35.732Z,12.39
2023-05-18T18:09:39.115Z,12.39
2023-05-18T18:12:41.972Z,12.38
2023-05-18T18:15:44.960Z,12.37
2023-05-18T18:18:47.799Z,12.40
2023-05-18T18:21:50.669Z,12.90
2023-05-18T18:24:53.301Z,12.67
2023-05-18T18:27:58.235Z,12.55
2023-05-18T18:31:01.130Z,12.50
2023-05-18T18:34:04.288Z,12.45
2023-05-18T18:37:06.928Z,12.43
2023-05-18T18:40:11.468Z,12.41
2023-05-18T18:43:14.399Z,12.38
2023-05-18T18:46:17.337Z,12.27
2023-05-18T18:49:20.137Z,12.37
2023-05-18T18:52:23.576Z,12.36
2023-05-18T18:55:26.751Z,12.36
2023-05-18T18:58:29.936Z,12.36
2023-05-18T19:01:32.704Z,12.35
2023-05-18T19:04:35.755Z,12.33
2023-05-18T19:07:38.701Z,12.30
2023-05-18T19:10:41.842Z,12.19
2023-05-18T19:13:47.219Z,12.28
2023-05-18T19:16:50.437Z,12.29
2023-05-18T19:19:53.465Z,12.17
2023-05-18T19:22:58.742Z,12.28
2023-05-18T19:26:04.159Z,12.26
2023-05-18T19:29:07.622Z,12.27
2023-05-18T19:32:11.503Z,12.22
2023-05-18T19:35:14.617Z,12.21
2023-05-18T19:38:17.351Z,12.21
2023-05-18T19:41:22.889Z,12.21
2023-05-18T19:44:26.765Z,12.15
2023-05-18T19:47:29.960Z,12.12
2023-05-18T19:50:32.616Z,12.13
2023-05-18T19:53:38.264Z,12.10
2023-05-18T19:56:40.987Z,12.06
2023-05-18T19:59:43.868Z,12.03
2023-05-18T20:02:46.469Z,12.04
2023-05-18T20:05:50.092Z,11.98
2023-05-18T20:08:52.644Z,12.00
2023-05-18T20:11:56.238Z,11.96
2023-05-18T20:14:59.094Z,11.83
2023-05-18T20:18:02.334Z,11.93
2023-05-18T20:21:05.090Z,11.94
2023-05-18T20:24:08.004Z,11.94
2023-05-18T20:27:14.566Z,11.84
2023-05-18T20:30:17.620Z,11.94
2023-05-18T20:33:20.495Z,11.94
2023-05-18T20:36:25.249Z,11.94
2023-05-18T20:39:29.140Z,11.93
2023-05-18T20:42:38.533Z,11.90
2023-05-18T20:45:41.902Z,11.85
2023-05-18T20:48:44.799Z,11.81
2023-05-18T20:51:49.094Z,11.80
2023-05-18T20:54:52.183Z,11.79
2023-05-18T20:57:54.814Z,11.79
2023-05-18T21:00:57.622Z,11.76
2023-05-18T21:04:00.527Z,11.72
2023-05-18T21:07:05.543Z,11.74
2023-05-18T21:10:09.069Z,11.68
2023-05-18T21:13:12.012Z,11.61
2023-05-18T21:16:14.583Z,11.57
2023-05-18T21:19:17.567Z,11.48
2023-05-18T21:22:20.247Z,11.45
2023-05-18T21:25:24.062Z,11.50
2023-05-18T21:28:26.750Z,11.49
2023-05-18T21:31:29.722Z,11.45
2023-05-18T21:34:32.550Z,11.45
2023-05-18T21:37:35.359Z,11.42
2023-05-18T21:40:38.152Z,11.38
2023-05-18T21:43:41.076Z,11.30
2023-05-18T21:46:43.737Z,11.31
2023-05-18T21:49:46.723Z,11.28
2023-05-18T21:52:49.601Z,11.28
2023-05-18T21:55:52.671Z,11.30
2023-05-18T21:58:55.871Z,11.27
2023-05-18T22:01:58.884Z,11.26
2023-05-18T22:05:01.834Z,11.21
2023-05-18T22:08:04.586Z,11.16
2023-05-18T22:11:07.439Z,11.12
2023-05-18T22:14:09.899Z,11.06
2023-05-18T22:17:12.907Z,11.07
2023-05-18T22:20:16.080Z,11.04
2023-05-18T22:23:18.952Z,11.05
2023-05-18T22:26:21.466Z,11.06
2023-05-18T22:29:24.348Z,11.06
2023-05-18T22:32:26.976Z,11.01
2023-05-18T22:35:30.095Z,11.03
2023-05-18T22:38:32.641Z,11.01
2023-05-18T22:41:35.501Z,11.01
2023-05-18T22:44:38.003Z,11.03
2023-05-18T22:47:40.940Z,11.03
2023-05-18T22:50:43.597Z,11.03
2023-05-18T22:53:46.624Z,11.04
2023-05-18T22:56:49.193Z,11.01
2023-05-18T22:59:52.092Z,11.01
2023-05-18T23:02:54.677Z,10.96
2023-05-18T23:05:57.738Z,10.94
2023-05-18T23:09:00.533Z,10.92
2023-05-18T23:12:04.681Z,10.87
2023-05-18T23:15:07.960Z,10.91
2023-05-18T23:18:12.487Z,10.89
2023-05-18T23:21:15.092Z,10.88
2023-05-18T23:24:18.391Z,10.88
2023-05-18T23:27:21.071Z,10.83
2023-05-18T23:30:23.949Z,10.83
2023-05-18T23:33:26.830Z,10.82
2023-05-18T23:36:35.179Z,10.81
2023-05-18T23:39:41.593Z,10.80
2023-05-18T23:42:44.755Z,10.80
2023-05-18T23:45:47.590Z,10.83
2023-05-18T23:48:52.470Z,10.85
2023-05-18T23:51:55.506Z,10.81
2023-05-18T23:54:59.011Z,10.78
2023-05-18T23:58:02.231Z,10.81
